createdAt,value
2023-04-25T00:00:21.094Z,5.40
2023-04-25T00:02:29.724Z,5.35
2023-04-25T00:04:39.595Z,4.60
2023-04-25T00:06:48.799Z,4.50
2023-04-25T00:08:57.765Z,5.20
2023-04-25T00:11:05.582Z,4.68
2023-04-25T00:13:13.637Z,4.47
2023-04-25T00:15:25.553Z,4.40
2023-04-25T00:17:33.722Z,4.25
2023-04-25T00:19:41.587Z,4.00
2023-04-25T00:21:50.230Z,4.60
2023-04-25T00:23:58.908Z,4.53
2023-04-25T00:26:07.214Z,4.35
2023-04-25T00:28:16.269Z,4.90
2023-04-25T00:30:26.971Z,4.28
2023-04-25T00:32:34.948Z,4.20
2023-04-25T00:34:42.918Z,4.20
2023-04-25T00:36:51.254Z,4.57
2023-04-25T00:38:59.161Z,4.63
2023-04-25T00:41:06.970Z,4.05
2023-04-25T00:43:14.855Z,4.38
2023-04-25T00:45:23.405Z,4.13
2023-04-25T00:47:35.916Z,4.95
2023-04-25T00:49:44.062Z,4.97
2023-04-25T00:51:54.265Z,4.70
2023-04-25T00:54:02.739Z,5.03
2023-04-25T00:56:11.221Z,5.72
2023-04-25T00:58:19.464Z,4.47
2023-04-25T01:00:28.154Z,4.88
2023-04-25T01:02:42.169Z,5.03
2023-04-25T01:04:51.305Z,5.32
2023-04-25T01:06:59.460Z,5.85
2023-04-25T01:09:09.082Z,5.53
2023-04-25T01:11:17.032Z,4.70
2023-04-25T01:13:25.085Z,5.10
2023-04-25T01:15:34.510Z,4.68
2023-04-25T01:17:45.477Z,5.15
2023-04-25T01:19:53.946Z,5.43
2023-04-25T01:22:04.945Z,5.13
2023-04-25T01:24:13.221Z,6.18
2023-04-25T01:26:22.528Z,5.78
2023-04-25T01:28:31.331Z,6.20
2023-04-25T01:30:39.954Z,5.80
2023-04-25T01:32:48.700Z,5.10
2023-04-25T01:34:56.742Z,5.38
2023-04-25T01:37:07.357Z,5.40
2023-04-25T01:39:15.747Z,5.75
2023-04-25T01:41:24.489Z,5.85
2023-04-25T01:43:32.549Z,6.05
2023-04-25T01:45:42.320Z,6.03
2023-04-25T01:47:53.331Z,5.80
2023-04-25T01:50:01.303Z,5.43
2023-04-25T01:52:11.924Z,5.55
2023-04-25T01:54:19.968Z,5.55
2023-04-25T01:56:28.175Z,6.20
2023-04-25T01:58:36.461Z,6.15
2023-04-25T02:00:44.637Z,5.60
2023-04-25T02:02:54.687Z,5.80
2023-04-25T02:05:09.264Z,5.90
2023-04-25T02:07:23.100Z,5.40
2023-04-25T02:09:34.005Z,5.88
2023-04-25T02:11:47.974Z,5.32
2023-04-25T02:14:09.210Z,5.40
2023-04-25T02:16:28.917Z,4.82
2023-04-25T02:18:38.199Z,5.07
2023-04-25T02:20:49.215Z,3.80
2023-04-25T02:22:59.896Z,4.45
2023-04-25T02:25:10.952Z,4.55
2023-04-25T02:27:19.181Z,3.15
2023-04-25T02:29:27.106Z,3.47
2023-04-25T02:31:35.321Z,3.60
2023-04-25T02:33:43.746Z,3.60
2023-04-25T02:35:59.873Z,3.72
2023-04-25T02:38:10.550Z,3.80
2023-04-25T02:40:18.457Z,3.63
2023-04-25T02:42:26.428Z,4.10
2023-04-25T02:44:34.297Z,3.50
2023-04-25T02:46:42.288Z,3.75
2023-04-25T02:48:50.478Z,3.70
2023-04-25T02:50:58.742Z,3.95
2023-04-25T02:53:06.820Z,4.18
2023-04-25T02:55:24.755Z,3.45
2023-04-25T02:57:34.410Z,4.00
2023-04-25T02:59:42.356Z,3.75
2023-04-25T03:01:50.485Z,4.20
2023-04-25T03:03:58.464Z,5.00
2023-04-25T03:06:06.880Z,4.18
2023-04-25T03:08:15.831Z,4.70
2023-04-25T03:10:27.658Z,3.75
2023-04-25T03:12:36.673Z,4.63
2023-04-25T03:14:45.994Z,4.45
2023-04-25T03:16:53.977Z,4.72
2023-04-25T03:19:02.063Z,4.50
2023-04-25T03:21:10.278Z,4.45
2023-04-25T03:23:18.536Z,4.18
2023-04-25T03:25:30.065Z,5.38
2023-04-25T03:27:38.251Z,5.03
2023-04-25T03:29:46.860Z,4.60
2023-04-25T03:31:55.363Z,4.70
2023-04-25T03:34:03.386Z,5.60
2023-04-25T03:36:12.378Z,5.20
2023-04-25T03:38:21.575Z,4.50
2023-04-25T03:40:32.395Z,4.82
2023-04-25T03:42:52.159Z,5.25
2023-04-25T03:45:00.142Z,5.00
2023-04-25T03:47:08.136Z,4.32
2023-04-25T03:49:19.052Z,4.00
2023-04-25T03:51:42.531Z,5.03
2023-04-25T03:53:52.057Z,4.70
2023-04-25T03:56:32.330Z,5.30
2023-04-25T03:58:48.736Z,5.28
2023-04-25T04:00:58.937Z,4.85
2023-04-25T04:03:07.128Z,4.70
2023-04-25T04:05:16.190Z,5.05
2023-04-25T04:07:30.871Z,4.68
2023-04-25T04:09:39.727Z,4.72
2023-04-25T04:11:58.930Z,4.60
2023-04-25T04:14:06.931Z,5.30
2023-04-25T04:16:16.242Z,4.70
2023-04-25T04:18:25.133Z,4.93
2023-04-25T04:20:34.096Z,4.88
2023-04-25T04:22:42.201Z,5.00
2023-04-25T04:24:54.094Z,4.82
2023-04-25T04:27:27.768Z,4.32
2023-04-25T04:29:47.649Z,4.95
2023-04-25T04:32:07.088Z,5.50
2023-04-25T04:34:17.732Z,4.78
2023-04-25T04:36:27.723Z,4.85
2023-04-25T04:38:39.165Z,5.35
2023-04-25T04:40:49.414Z,4.22
2023-04-25T04:43:07.000Z,5.32
2023-04-25T04:45:35.535Z,4.55
2023-04-25T04:48:03.525Z,5.20
2023-04-25T04:50:16.205Z,5.10
2023-04-25T04:52:50.271Z,5.20
2023-04-25T04:55:16.832Z,4.55
2023-04-25T04:57:51.486Z,5.18
2023-04-25T05:00:28.494Z,4.55
2023-04-25T05:03:12.916Z,5.40
2023-04-25T05:05:41.791Z,4.88
2023-04-25T05:08:12.927Z,4.40
2023-04-25T05:10:40.900Z,5.07
2023-04-25T05:13:00.592Z,5.50
2023-04-25T05:15:27.651Z,5.65
2023-04-25T05:17:47.738Z,4.93
2023-04-25T05:20:20.215Z,5.07
2023-04-25T05:22:46.966Z,5.55
2023-04-25T05:25:00.853Z,5.38
2023-04-25T05:27:34.803Z,5.38
2023-04-25T05:30:05.437Z,6.03
2023-04-25T05:32:30.346Z,4.85
2023-04-25T05:34:38.590Z,5.18
2023-04-25T05:36:51.960Z,5.20
2023-04-25T05:39:00.991Z,5.07
2023-04-25T05:41:34.506Z,5.03
2023-04-25T05:44:08.687Z,5.80
2023-04-25T05:46:32.099Z,5.60
2023-04-25T05:49:06.581Z,5.10
2023-04-25T05:51:42.871Z,5.35
2023-04-25T05:54:19.781Z,5.10
2023-04-25T05:56:27.889Z,5.10
2023-04-25T05:58:37.678Z,4.40
2023-04-25T06:00:47.607Z,4.68
2023-04-25T06:02:56.185Z,4.30
2023-04-25T06:05:08.300Z,4.22
2023-04-25T06:07:16.747Z,4.15
2023-04-25T06:09:25.494Z,4.60
2023-04-25T06:11:35.606Z,4.40
2023-04-25T06:13:44.867Z,4.03
2023-04-25T06:15:53.709Z,4.47
2023-04-25T06:18:01.910Z,3.65
2023-04-25T06:20:14.739Z,3.58
2023-04-25T06:22:23.213Z,4.05
2023-04-25T06:24:31.303Z,3.70
2023-04-25T06:26:39.701Z,3.55
2023-04-25T06:28:48.225Z,3.50
2023-04-25T06:30:58.386Z,4.63
2023-04-25T06:33:09.980Z,4.15
2023-04-25T06:35:22.148Z,3.92
2023-04-25T06:37:30.389Z,4.10
2023-04-25T06:39:40.553Z,3.95
2023-04-25T06:41:49.566Z,4.70
2023-04-25T06:44:17.815Z,3.92
2023-04-25T06:46:33.840Z,3.83
2023-04-25T06:48:42.063Z,4.20
2023-04-25T06:50:52.884Z,4.72
2023-04-25T06:53:02.707Z,3.65
2023-04-25T06:55:13.270Z,3.63
2023-04-25T06:57:43.534Z,4.90
2023-04-25T07:00:22.169Z,3.95
2023-04-25T07:02:30.728Z,3.72
2023-04-25T07:04:41.161Z,4.13
2023-04-25T07:06:53.209Z,4.07
2023-04-25T07:09:07.621Z,3.88
2023-04-25T07:11:17.333Z,3.30
2023-04-25T07:13:26.345Z,3.78
2023-04-25T07:15:34.633Z,3.70
2023-04-25T07:17:43.519Z,3.65
2023-04-25T07:19:54.290Z,4.10
2023-04-25T07:22:06.898Z,4.10
2023-04-25T07:24:17.848Z,3.50
2023-04-25T07:26:32.670Z,3.80
2023-04-25T07:29:02.779Z,3.50
2023-04-25T07:31:11.828Z,4.05
2023-04-25T07:33:21.613Z,4.20
2023-04-25T07:35:29.919Z,3.45
2023-04-25T07:37:41.408Z,3.67
2023-04-25T07:39:55.184Z,3.50
2023-04-25T07:42:03.391Z,4.10
2023-04-25T07:44:16.587Z,4.20
2023-04-25T07:46:24.669Z,4.00
2023-04-25T07:48:34.542Z,4.60
2023-04-25T07:50:46.432Z,4.70
2023-04-25T07:52:58.704Z,4.28
2023-04-25T07:55:15.819Z,4.68
2023-04-25T07:57:36.998Z,4.88
2023-04-25T07:59:45.082Z,4.10
2023-04-25T08:01:54.993Z,4.60
2023-04-25T08:04:05.420Z,5.10
2023-04-25T08:06:29.554Z,5.05
2023-04-25T08:08:49.753Z,4.72
2023-04-25T08:11:00.818Z,5.43
2023-04-25T08:13:09.143Z,5.57
2023-04-25T08:15:18.280Z,5.18
2023-04-25T08:17:28.272Z,6.00
2023-04-25T08:19:36.659Z,7.50
2023-04-25T08:21:44.694Z,8.32
2023-04-25T08:23:59.894Z,8.20
2023-04-25T08:26:14.952Z,7.90
2023-04-25T08:28:25.870Z,7.10
2023-04-25T08:30:36.237Z,8.32
2023-04-25T08:32:44.344Z,8.63
2023-04-25T08:35:14.774Z,7.82
2023-04-25T08:37:23.613Z,9.30
2023-04-25T08:39:43.373Z,6.88
2023-04-25T08:42:16.362Z,8.15
2023-04-25T08:44:27.458Z,6.75
2023-04-25T08:46:36.402Z,7.15
2023-04-25T08:48:58.055Z,6.47
2023-04-25T08:51:12.505Z,7.35
2023-04-25T08:55:37.721Z,7.43
2023-04-25T08:57:47.546Z,8.48
2023-04-25T08:59:58.339Z,7.38
2023-04-25T09:02:15.718Z,6.90
2023-04-25T09:04:24.956Z,8.10
2023-04-25T09:06:35.902Z,7.45
2023-04-25T09:08:45.034Z,7.03
2023-04-25T09:10:55.750Z,6.50
2023-04-25T09:13:10.137Z,7.15
2023-04-25T09:15:52.710Z,6.82
2023-04-25T09:18:15.599Z,6.90
2023-04-25T09:20:27.870Z,6.03
2023-04-25T09:22:36.269Z,6.85
2023-04-25T09:24:50.040Z,7.88
2023-04-25T09:27:02.613Z,6.43
2023-04-25T09:29:12.045Z,6.75
2023-04-25T09:31:26.709Z,7.28
2023-04-25T09:33:39.431Z,8.05
2023-04-25T09:35:54.092Z,7.85
2023-04-25T09:38:22.757Z,8.07
2023-04-25T09:40:34.732Z,6.50
2023-04-25T09:42:55.859Z,6.68
2023-04-25T09:45:06.321Z,7.53
2023-04-25T09:47:22.737Z,7.35
2023-04-25T09:49:31.462Z,7.47
2023-04-25T09:51:45.248Z,7.07
2023-04-25T09:53:53.959Z,8.25
2023-04-25T09:56:23.907Z,6.82
2023-04-25T09:58:35.525Z,7.88
2023-04-25T10:00:45.049Z,7.18
2023-04-25T10:03:07.717Z,8.68
2023-04-25T10:05:38.882Z,7.72
2023-04-25T10:07:47.413Z,7.80
2023-04-25T10:10:04.118Z,7.05
2023-04-25T10:12:12.420Z,7.32
2023-04-25T10:14:23.534Z,6.95
2023-04-25T10:16:32.588Z,5.75
2023-04-25T10:18:40.599Z,6.60
2023-04-25T10:20:53.295Z,7.10
2023-04-25T10:23:10.792Z,5.60
2023-04-25T10:25:19.167Z,5.53
2023-04-25T10:27:31.789Z,6.10
2023-04-25T10:29:43.292Z,5.53
2023-04-25T10:31:51.417Z,5.20
2023-04-25T10:33:59.392Z,4.35
2023-04-25T10:36:17.832Z,3.97
2023-04-25T10:38:27.501Z,3.72
2023-04-25T10:40:35.797Z,4.20
2023-04-25T10:42:45.371Z,3.95
2023-04-25T10:45:09.920Z,3.05
2023-04-25T10:48:00.596Z,3.42
2023-04-25T10:50:13.413Z,3.33
2023-04-25T10:52:30.954Z,3.30
2023-04-25T10:54:38.836Z,2.80
2023-04-25T10:56:47.624Z,2.90
2023-04-25T10:58:56.158Z,2.90
2023-04-25T11:01:07.325Z,2.80
2023-04-25T11:03:20.487Z,2.80
2023-04-25T11:05:43.904Z,3.15
2023-04-25T11:10:29.504Z,2.83
2023-04-25T11:12:37.731Z,3.35
2023-04-25T11:14:45.733Z,2.88
2023-04-25T11:17:01.025Z,4.00
2023-04-25T11:19:09.318Z,4.40
2023-04-25T11:21:18.074Z,4.90
2023-04-25T11:23:26.105Z,5.40
2023-04-25T11:25:35.497Z,5.53
2023-04-25T11:27:54.314Z,5.00
2023-04-25T11:30:02.495Z,4.20
2023-04-25T11:32:13.092Z,3.35
2023-04-25T11:34:21.924Z,3.80
2023-04-25T11:36:32.272Z,3.90
2023-04-25T11:38:41.724Z,3.67
2023-04-25T11:40:54.209Z,2.90
2023-04-25T11:43:04.587Z,2.97
2023-04-25T11:45:13.312Z,2.15
2023-04-25T11:47:23.847Z,2.53
2023-04-25T11:49:36.364Z,3.08
2023-04-25T11:51:44.629Z,1.95
2023-04-25T11:53:53.081Z,2.60
2023-04-25T11:56:01.080Z,2.03
2023-04-25T11:58:09.824Z,3.42
2023-04-25T12:00:21.281Z,3.30
2023-04-25T12:02:32.455Z,3.33
2023-04-25T12:04:40.858Z,3.30
2023-04-25T12:06:50.537Z,3.22
2023-04-25T12:09:07.028Z,3.00
2023-04-25T12:11:25.227Z,3.15
2023-04-25T12:13:33.211Z,2.95
2023-04-25T12:15:44.807Z,3.20
2023-04-25T12:17:57.701Z,3.33
2023-04-25T12:20:11.951Z,3.28
2023-04-25T12:22:25.308Z,3.42
2023-04-25T12:24:33.322Z,3.58
2023-04-25T12:26:55.912Z,3.40
2023-04-25T12:29:03.860Z,3.25
2023-04-25T12:31:15.718Z,3.60
2023-04-25T12:33:26.646Z,3.13
2023-04-25T12:35:36.020Z,2.65
2023-04-25T12:37:44.002Z,3.78
2023-04-25T12:39:52.102Z,3.50
2023-04-25T12:42:00.941Z,3.60
2023-04-25T12:44:09.062Z,4.07
2023-04-25T12:46:17.099Z,4.35
2023-04-25T12:48:28.076Z,4.18
2023-04-25T12:50:36.129Z,4.75
2023-04-25T12:52:44.147Z,5.25
2023-04-25T12:54:52.580Z,5.30
2023-04-25T12:57:00.615Z,4.93
2023-04-25T12:59:08.588Z,5.35
2023-04-25T13:01:16.564Z,5.53
2023-04-25T13:03:27.248Z,5.70
2023-04-25T13:05:35.708Z,5.10
2023-04-25T13:07:43.665Z,5.85
2023-04-25T13:09:51.633Z,6.13
2023-04-25T13:12:00.219Z,6.03
2023-04-25T13:14:09.575Z,5.45
2023-04-25T13:16:17.994Z,5.78
2023-04-25T13:18:29.014Z,5.97
2023-04-25T13:20:37.568Z,5.55
2023-04-25T13:22:47.050Z,5.20
2023-04-25T13:24:55.148Z,5.28
2023-04-25T13:27:03.481Z,5.20
2023-04-25T13:29:11.521Z,5.60
2023-04-25T13:31:19.681Z,5.10
2023-04-25T13:33:31.113Z,5.93
2023-04-25T13:35:40.561Z,6.05
2023-04-25T13:37:48.913Z,5.80
2023-04-25T13:39:57.660Z,5.70
2023-04-25T13:42:05.795Z,6.53
2023-04-25T13:44:14.566Z,6.00
2023-04-25T13:48:37.101Z,6.63
2023-04-25T13:50:45.150Z,6.20
2023-04-25T13:52:53.178Z,6.47
2023-04-25T13:55:04.694Z,6.80
2023-04-25T13:57:12.930Z,6.15
2023-04-25T13:59:21.033Z,6.65
2023-04-25T14:01:35.517Z,6.70
2023-04-25T14:03:46.714Z,6.85
2023-04-25T14:05:54.866Z,6.80
2023-04-25T14:08:03.082Z,6.50
2023-04-25T14:10:11.724Z,6.55
2023-04-25T14:12:20.204Z,6.10
2023-04-25T14:14:28.596Z,6.40
2023-04-25T14:16:37.774Z,6.70
2023-04-25T14:18:48.679Z,7.25
2023-04-25T14:20:59.597Z,6.97
2023-04-25T14:23:07.903Z,6.45
2023-04-25T14:25:16.619Z,7.43
2023-04-25T14:27:25.404Z,6.68
2023-04-25T14:29:36.065Z,7.10
2023-04-25T14:31:44.433Z,7.60
2023-04-25T14:33:57.665Z,6.78
2023-04-25T14:36:07.815Z,7.75
2023-04-25T14:38:16.319Z,7.80
2023-04-25T14:40:24.309Z,7.75
2023-04-25T14:42:33.331Z,8.02
2023-04-25T14:44:42.167Z,7.85
2023-04-25T14:46:52.768Z,7.80
2023-04-25T14:49:03.522Z,7.95
2023-04-25T14:51:11.533Z,8.55
2023-04-25T14:53:19.656Z,8.73
2023-04-25T14:55:27.604Z,8.25
2023-04-25T14:57:35.746Z,8.15
2023-04-25T14:59:43.790Z,7.80
2023-04-25T15:01:59.483Z,7.85
2023-04-25T15:04:14.179Z,7.38
2023-04-25T15:06:22.212Z,8.43
2023-04-25T15:08:31.201Z,9.90
2023-04-25T15:10:39.288Z,8.45
2023-04-25T15:12:48.075Z,7.88
2023-04-25T15:14:56.063Z,8.60
2023-04-25T15:17:04.161Z,8.30
2023-04-25T15:19:14.762Z,8.20
2023-04-25T15:21:22.760Z,8.88
2023-04-25T15:23:31.581Z,7.82
2023-04-25T15:25:39.487Z,6.85
2023-04-25T15:27:49.687Z,7.65
2023-04-25T15:30:00.333Z,7.72
2023-04-25T15:32:10.668Z,7.65
2023-04-25T15:34:21.547Z,7.22
2023-04-25T15:36:32.663Z,7.10
2023-04-25T15:38:41.711Z,6.45
2023-04-25T15:40:49.798Z,7.30
2023-04-25T15:42:57.901Z,7.25
2023-04-25T15:45:06.108Z,7.32
2023-04-25T15:47:14.309Z,6.97
2023-04-25T15:49:25.075Z,6.68
2023-04-25T15:51:34.919Z,7.22
2023-04-25T15:53:44.142Z,7.70
2023-04-25T15:55:52.550Z,8.27
2023-04-25T15:58:01.199Z,7.95
2023-04-25T16:00:13.965Z,8.40
2023-04-25T16:02:22.440Z,8.65
2023-04-25T16:04:36.003Z,7.43
2023-04-25T16:06:45.661Z,7.32
2023-04-25T16:08:53.877Z,8.63
2023-04-25T16:11:01.983Z,7.38
2023-04-25T16:13:11.929Z,6.97
2023-04-25T16:15:20.078Z,7.97
2023-04-25T16:17:30.690Z,6.95
2023-04-25T16:19:41.684Z,7.72
2023-04-25T16:21:49.660Z,6.93
2023-04-25T16:23:57.996Z,6.95
2023-04-25T16:26:06.475Z,6.97
2023-04-25T16:28:14.637Z,7.93
2023-04-25T16:30:22.719Z,7.50
2023-04-25T16:32:30.993Z,8.40
2023-04-25T16:34:41.789Z,8.50
2023-04-25T16:36:50.554Z,8.93
2023-04-25T16:39:01.468Z,7.38
2023-04-25T16:41:09.761Z,7.82
2023-04-25T16:43:20.167Z,7.40
2023-04-25T16:45:29.548Z,6.65
2023-04-25T16:47:37.592Z,7.85
2023-04-25T16:49:48.618Z,7.70
2023-04-25T16:51:56.808Z,7.63
2023-04-25T16:54:05.051Z,8.93
2023-04-25T16:56:13.360Z,7.20
2023-04-25T16:58:22.052Z,8.30
2023-04-25T17:00:30.086Z,7.95
2023-04-25T17:02:38.481Z,8.30
2023-04-25T17:04:49.425Z,7.38
2023-04-25T17:06:57.761Z,8.30
2023-04-25T17:09:06.376Z,8.68
2023-04-25T17:11:14.370Z,8.32
2023-04-25T17:13:31.171Z,7.65
2023-04-25T17:15:40.114Z,7.43
2023-04-25T17:17:48.397Z,7.88
2023-04-25T17:19:59.386Z,8.48
2023-04-25T17:22:07.766Z,8.82
2023-04-25T17:24:16.206Z,8.00
2023-04-25T17:26:24.306Z,7.05
2023-04-25T17:28:32.814Z,8.80
2023-04-25T17:30:42.610Z,8.15
2023-04-25T17:32:50.799Z,8.93
2023-04-25T17:35:01.595Z,8.75
2023-04-25T17:37:15.336Z,9.13
2023-04-25T17:39:23.353Z,9.48
2023-04-25T17:41:31.245Z,8.93
2023-04-25T17:43:39.354Z,11.10
2023-04-25T17:45:47.392Z,9.15
2023-04-25T17:47:55.428Z,10.05
2023-04-25T17:50:06.503Z,10.27
2023-04-25T17:52:15.374Z,10.05
2023-04-25T17:54:23.670Z,10.38
2023-04-25T17:56:32.024Z,9.82
2023-04-25T17:58:40.602Z,9.00
2023-04-25T18:00:48.667Z,9.50
2023-04-25T18:02:57.081Z,8.15
2023-04-25T18:05:10.269Z,8.50
2023-04-25T18:07:18.934Z,9.55
2023-04-25T18:09:27.083Z,9.77
2023-04-25T18:11:35.053Z,8.80
2023-04-25T18:13:43.335Z,8.80
2023-04-25T18:15:52.114Z,8.25
2023-04-25T18:18:03.103Z,8.63
2023-04-25T18:20:16.653Z,7.65
2023-04-25T18:22:24.777Z,6.93
2023-04-25T18:24:32.778Z,6.82
2023-04-25T18:26:41.206Z,6.93
2023-04-25T18:28:49.644Z,7.40
2023-04-25T18:30:58.193Z,8.95
2023-04-25T18:33:07.166Z,6.78
2023-04-25T18:35:18.324Z,8.60
2023-04-25T18:37:26.429Z,7.00
2023-04-25T18:39:34.545Z,7.97
2023-04-25T18:41:55.235Z,8.65
2023-04-25T18:44:08.138Z,10.20
2023-04-25T18:46:16.617Z,9.73
2023-04-25T18:48:24.617Z,10.75
2023-04-25T18:50:35.580Z,9.60
2023-04-25T18:52:43.966Z,11.07
2023-04-25T18:54:52.737Z,11.63
2023-04-25T18:57:01.361Z,12.20
2023-04-25T18:59:09.446Z,10.32
2023-04-25T19:01:17.753Z,10.27
2023-04-25T19:03:26.591Z,10.52
2023-04-25T19:05:37.556Z,11.55
2023-04-25T19:07:47.397Z,10.80
2023-04-25T19:09:55.318Z,10.63
2023-04-25T19:12:04.126Z,10.90
2023-04-25T19:14:12.401Z,11.10
2023-04-25T19:16:22.694Z,10.90
2023-04-25T19:18:30.936Z,10.52
2023-04-25T19:20:41.983Z,11.02
2023-04-25T19:22:50.442Z,11.45
2023-04-25T19:25:10.026Z,11.50
2023-04-25T19:27:19.233Z,12.15
2023-04-25T19:29:29.172Z,12.02
2023-04-25T19:31:38.357Z,11.20
2023-04-25T19:33:47.003Z,10.75
2023-04-25T19:35:57.724Z,12.48
2023-04-25T19:38:05.809Z,12.43
2023-04-25T19:40:16.286Z,12.68
2023-04-25T19:42:24.556Z,11.73
2023-04-25T19:44:32.658Z,11.07
2023-04-25T19:46:42.397Z,12.20
2023-04-25T19:48:50.367Z,11.98
2023-04-25T19:51:01.074Z,12.07
2023-04-25T19:53:09.430Z,12.80
2023-04-25T19:55:18.344Z,12.45
2023-04-25T19:57:28.028Z,13.70
2023-04-25T19:59:35.994Z,12.32
2023-04-25T20:01:44.200Z,13.57
2023-04-25T20:03:53.698Z,13.13
2023-04-25T20:06:04.793Z,12.75
2023-04-25T20:08:13.719Z,13.25
2023-04-25T20:10:21.644Z,13.85
2023-04-25T20:12:29.793Z,12.23
2023-04-25T20:14:40.312Z,11.52
2023-04-25T20:16:48.634Z,11.52
2023-04-25T20:19:00.276Z,10.40
2023-04-25T20:21:11.152Z,11.13
2023-04-25T20:23:19.228Z,11.27
2023-04-25T20:25:27.447Z,11.40
2023-04-25T20:27:38.117Z,11.25
2023-04-25T20:29:46.395Z,9.70
2023-04-25T20:31:54.643Z,10.25
2023-04-25T20:34:02.732Z,9.85
2023-04-25T20:36:15.316Z,10.60
2023-04-25T20:38:23.559Z,10.70
2023-04-25T20:40:31.742Z,10.18
2023-04-25T20:42:39.973Z,10.63
2023-04-25T20:44:49.398Z,10.10
2023-04-25T20:46:57.400Z,10.25
2023-04-25T20:49:06.119Z,9.63
2023-04-25T20:51:17.019Z,8.60
2023-04-25T20:53:24.903Z,9.18
2023-04-25T20:55:32.838Z,9.02
2023-04-25T20:57:41.270Z,10.07
2023-04-25T20:59:50.830Z,9.40
2023-04-25T21:01:59.460Z,9.48
2023-04-25T21:04:09.404Z,9.95
2023-04-25T21:06:20.365Z,9.55
2023-04-25T21:08:28.521Z,8.52
2023-04-25T21:10:37.524Z,8.88
2023-04-25T21:12:49.492Z,8.80
2023-04-25T21:14:57.614Z,8.05
2023-04-25T21:17:06.074Z,9.27
2023-04-25T21:19:14.302Z,9.35
2023-04-25T21:21:24.983Z,10.43
2023-04-25T21:23:33.226Z,9.57
2023-04-25T21:25:42.524Z,9.80
2023-04-25T21:27:51.794Z,10.38
2023-04-25T21:29:59.949Z,9.88
2023-04-25T21:32:09.167Z,10.40
2023-04-25T21:34:18.429Z,10.18
2023-04-25T21:36:29.435Z,10.82
2023-04-25T21:38:37.775Z,10.10
2023-04-25T21:40:46.056Z,10.60
2023-04-25T21:42:54.293Z,11.77
2023-04-25T21:45:02.305Z,11.68
2023-04-25T21:47:10.225Z,11.90
2023-04-25T21:49:18.090Z,10.85
2023-04-25T21:51:29.014Z,12.10
2023-04-25T21:53:36.855Z,12.43
2023-04-25T21:55:45.170Z,12.70
2023-04-25T21:57:53.295Z,12.30
2023-04-25T22:00:02.323Z,12.52
2023-04-25T22:02:11.361Z,12.65
2023-04-25T22:04:19.496Z,13.27
2023-04-25T22:06:31.251Z,11.68
2023-04-25T22:08:40.808Z,11.68
2023-04-25T22:10:49.458Z,11.55
2023-04-25T22:12:57.469Z,11.73
2023-04-25T22:15:05.674Z,12.38
2023-04-25T22:17:13.918Z,11.75
2023-04-25T22:19:21.853Z,11.43
2023-04-25T22:21:32.945Z,11.93
2023-04-25T22:24:11.017Z,12.10
2023-04-25T22:26:21.091Z,11.57
2023-04-25T22:28:29.526Z,11.77
2023-04-25T22:30:38.082Z,10.70
2023-04-25T22:32:46.296Z,11.05
2023-04-25T22:34:54.465Z,10.15
2023-04-25T22:37:04.930Z,12.15
2023-04-25T22:39:15.356Z,11.40
2023-04-25T22:41:23.815Z,12.02
2023-04-25T22:43:32.125Z,12.27
2023-04-25T22:45:41.050Z,12.57
2023-04-25T22:47:49.263Z,11.25
2023-04-25T22:49:58.265Z,12.95
2023-04-25T22:52:10.511Z,13.82
2023-04-25T22:54:19.310Z,13.10
2023-04-25T22:56:27.295Z,13.30
2023-04-25T22:58:35.573Z,14.13
2023-04-25T23:00:43.849Z,12.75
2023-04-25T23:02:52.757Z,11.98
2023-04-25T23:05:01.910Z,12.82
2023-04-25T23:07:13.691Z,12.40
2023-04-25T23:09:22.104Z,12.57
2023-04-25T23:11:30.443Z,12.57
2023-04-25T23:13:41.586Z,12.05
2023-04-25T23:15:49.922Z,13.80
2023-04-25T23:17:58.174Z,11.05
2023-04-25T23:20:07.903Z,12.75
2023-04-25T23:22:19.576Z,11.73
2023-04-25T23:24:27.683Z,13.38
2023-04-25T23:26:35.906Z,11.90
2023-04-25T23:28:43.801Z,12.85
2023-04-25T23:30:51.833Z,13.82
2023-04-25T23:33:00.170Z,14.10
2023-04-25T23:35:10.219Z,13.95
2023-04-25T23:37:20.706Z,13.40
2023-04-25T23:39:28.532Z,14.20
2023-04-25T23:41:36.778Z,13.77
2023-04-25T23:43:44.675Z,13.48
2023-04-25T23:45:54.389Z,13.70
2023-04-25T23:48:03.097Z,13.13
2023-04-25T23:50:12.356Z,14.60
2023-04-25T23:52:22.856Z,13.52
2023-04-25T23:54:30.772Z,13.90
2023-04-25T23:56:38.642Z,12.55
2023-04-25T23:58:46.947Z,14.65
